Time;durP1;ratioP1;P1;durP2;ratioP2;P2;SDS_P1;SDS_P2;PMS_P1;PMS_P2;Temp;Humidity;BMP_temperature;BMP_pressure;BME280_temperature;BME280_humidity;BME280_pressure;Samples;Min_cycle;Max_cycle;Signal;HPM_P1;HPM_P2
2023/12/24 00:01:18;;;;;;;;;;;;;;;17.52;34.85;95394.09;10482146;28;2458;-67
2023/12/24 00:06:18;;;;;;;;;;;;;;;17.51;34.89;95397.78;10480295;28;1954;-67
2023/12/24 00:11:19;;;;;;;;;;;;;;;17.50;34.78;95419.78;10478648;28;2009;-67
2023/12/24 00:16:19;;;;;;;;;;;;;;;17.49;34.78;95415.59;10482564;28;5101;-67
2023/12/24 00:21:19;;;;;;;;;;;;;;;17.48;34.89;95408.75;10487056;28;1981;-67
2023/12/24 00:26:19;;;;;;;;;;;;;;;17.47;34.76;95401.16;10483284;28;2008;-68
2023/12/24 00:31:20;;;;;;;;;;;;;;;17.46;35.01;95399.56;10471517;28;1993;-68
2023/12/24 00:36:20;;;;;;;;;;;;;;;17.45;34.90;95385.69;10467954;28;2399;-69
2023/12/24 00:41:20;;;;;;;;;;;;;;;17.46;34.79;95382.00;10478119;28;2079;-68
2023/12/24 00:46:21;;;;;;;;;;;;;;;17.44;34.89;95391.97;10479058;28;1914;-67
2023/12/24 00:51:21;;;;;;;;;;;;;;;17.41;35.03;95382.03;10442662;28;2056;-67
2023/12/24 00:56:21;;;;;;;;;;;;;;;17.43;34.81;95389.63;10480145;28;1852;-68
2023/12/24 01:01:21;;;;;;;;;;;;;;;17.42;34.77;95393.28;10473467;28;2121;-68
2023/12/24 01:06:22;;;;;;;;;;;;;;;17.41;34.94;95389.09;10462328;28;2203;-67
2023/12/24 01:11:22;;;;;;;;;;;;;;;17.39;34.72;95384.13;10479571;28;1912;-69
2023/12/24 01:16:22;;;;;;;;;;;;;;;17.38;34.88;95393.03;10486483;28;4955;-68
2023/12/24 01:21:22;;;;;;;;;;;;;;;17.37;34.88;95401.16;10480636;28;1906;-68
2023/12/24 01:26:25;;;;;;;;;;;;;;;17.37;34.87;95385.44;10474640;28;2026;-68
2023/12/24 01:31:27;;;;;;;;;;;;;;;17.36;35.02;95402.19;10477661;28;1966;-68
2023/12/24 01:36:27;;;;;;;;;;;;;;;17.36;34.77;95391.69;10478181;28;2290;-66
2023/12/24 01:41:27;;;;;;;;;;;;;;;17.34;34.87;95412.13;10475449;28;1921;-66
2023/12/24 01:46:27;;;;;;;;;;;;;;;17.33;34.98;95392.25;10478708;28;2040;-67
2023/12/24 01:51:28;;;;;;;;;;;;;;;17.32;34.97;95415.03;10476768;28;2002;-66
2023/12/24 01:56:29;;;;;;;;;;;;;;;17.33;34.88;95405.34;10465571;28;2351;-67
2023/12/24 02:01:29;;;;;;;;;;;;;;;17.31;34.91;95400.34;10482539;28;1914;-67
2023/12/24 02:06:30;;;;;;;;;;;;;;;17.30;35.04;95377.03;10483361;28;2021;-67
2023/12/24 02:11:30;;;;;;;;;;;;;;;17.30;34.96;95377.03;10464366;28;5227;-67
2023/12/24 02:16:31;;;;;;;;;;;;;;;17.28;34.97;95372.06;10478160;28;2027;-68
2023/12/24 02:21:34;;;;;;;;;;;;;;;17.28;34.97;95386.97;10464721;28;1934;-68
2023/12/24 02:26:35;;;;;;;;;;;;;;;17.27;34.99;95373.09;10486134;28;1873;-68
2023/12/24 02:31:36;;;;;;;;;;;;;;;17.26;34.84;95363.69;10477182;28;2212;-68
2023/12/24 02:36:36;;;;;;;;;;;;;;;17.26;34.88;95374.16;10479683;28;1930;-68
2023/12/24 02:41:37;;;;;;;;;;;;;;;17.24;35.16;95375.44;10460295;28;2019;-67
2023/12/24 02:46:40;;;;;;;;;;;;;;;17.24;34.98;95370.22;10491489;28;1899;-67
2023/12/24 02:51:40;;;;;;;;;;;;;;;17.23;35.03;95364.19;10490147;28;2223;-68
2023/12/24 02:56:40;;;;;;;;;;;;;;;17.21;34.89;95368.13;10487943;28;2054;-67
2023/12/24 03:01:40;;;;;;;;;;;;;;;17.20;34.87;95359.47;10485456;28;2051;-67
2023/12/24 03:06:41;;;;;;;;;;;;;;;17.20;34.97;95377.03;10487322;28;1904;-67
2023/12/24 03:11:41;;;;;;;;;;;;;;;17.19;34.88;95371.00;10473832;28;5002;-68
2023/12/24 03:16:41;;;;;;;;;;;;;;;17.18;35.04;95366.03;10483485;28;1935;-68
2023/12/24 03:21:41;;;;;;;;;;;;;;;17.17;34.86;95365.22;10469317;28;1933;-68
2023/12/24 03:26:42;;;;;;;;;;;;;;;17.17;35.08;95391.41;10479171;28;2102;-67
2023/12/24 03:31:42;;;;;;;;;;;;;;;17.15;35.08;95392.72;10497311;28;1878;-68
2023/12/24 03:36:42;;;;;;;;;;;;;;;17.16;34.65;95392.47;10498129;28;2050;-68
2023/12/24 03:41:45;;;;;;;;;;;;;;;17.16;34.84;95399.53;10486734;28;2046;-68
2023/12/24 03:46:45;;;;;;;;;;;;;;;17.13;34.92;95416.56;10492395;28;1973;-66
2023/12/24 03:51:47;;;;;;;;;;;;;;;17.13;35.04;95410.53;10487056;28;1888;-68
2023/12/24 03:56:47;;;;;;;;;;;;;;;17.12;34.90;95393.25;10484851;28;1926;-66
2023/12/24 04:01:48;;;;;;;;;;;;;;;17.12;34.97;95403.72;10485490;28;2144;-67
2023/12/24 04:06:48;;;;;;;;;;;;;;;17.12;34.93;95414.22;10482339;28;2022;-67
2023/12/24 04:11:51;;;;;;;;;;;;;;;17.09;34.92;95407.66;10480591;28;4983;-68
2023/12/24 04:16:51;;;;;;;;;;;;;;;17.08;34.91;95391.13;10489032;28;2109;-68
2023/12/24 04:21:51;;;;;;;;;;;;;;;17.08;34.80;95383.28;10479834;28;1945;-67
2023/12/24 04:26:51;;;;;;;;;;;;;;;17.07;34.80;95396.66;10482347;28;1950;-67
2023/12/24 04:31:52;;;;;;;;;;;;;;;17.06;34.79;95408.19;10489196;28;2015;-67
2023/12/24 04:36:52;;;;;;;;;;;;;;;17.04;35.01;95400.56;10493418;28;2484;-67
2023/12/24 04:41:53;;;;;;;;;;;;;;;17.05;34.84;95388.25;10482978;28;3707;-67
2023/12/24 04:46:53;;;;;;;;;;;;;;;17.04;34.98;95374.38;10483903;28;1906;-68
2023/12/24 04:51:54;;;;;;;;;;;;;;;17.04;35.08;95384.09;10489038;28;1877;-67
2023/12/24 04:56:55;;;;;;;;;;;;;;;17.03;35.05;95377.25;10485947;28;2083;-67
2023/12/24 05:01:55;;;;;;;;;;;;;;;17.02;34.84;95355.53;10475576;28;2065;-68
2023/12/24 05:06:55;;;;;;;;;;;;;;;17.02;34.87;95344.28;10470178;28;1972;-67
2023/12/24 05:11:55;;;;;;;;;;;;;;;17.01;34.87;95346.09;10494854;28;5023;-67
2023/12/24 05:16:56;;;;;;;;;;;;;;;16.99;34.81;95327.25;10462451;28;3597;-68
2023/12/24 05:21:56;;;;;;;;;;;;;;;16.98;34.89;95320.44;10457870;28;2091;-67
2023/12/24 05:26:56;;;;;;;;;;;;;;;16.98;34.89;95307.34;10484123;28;2386;-67
2023/12/24 05:31:59;;;;;;;;;;;;;;;16.97;34.94;95310.22;10477740;28;2070;-67
2023/12/24 05:37:00;;;;;;;;;;;;;;;16.97;34.81;95318.88;10466880;28;2132;-67
2023/12/24 05:42:03;;;;;;;;;;;;;;;16.96;35.00;95322.53;10465355;28;1994;-68
2023/12/24 05:47:03;;;;;;;;;;;;;;;16.96;34.79;95347.94;10459465;28;1862;-68
2023/12/24 05:52:04;;;;;;;;;;;;;;;16.95;34.90;95351.59;10474815;28;1966;-67
2023/12/24 05:57:04;;;;;;;;;;;;;;;16.94;34.82;95332.47;10474268;28;2108;-66
2023/12/24 06:02:04;;;;;;;;;;;;;;;16.93;34.86;95327.50;10480565;28;1922;-66
2023/12/24 06:07:05;;;;;;;;;;;;;;;16.92;34.91;95324.09;10482945;28;1958;-67
2023/12/24 06:12:06;;;;;;;;;;;;;;;16.92;34.91;95352.09;10480146;28;5068;-66
2023/12/24 06:17:06;;;;;;;;;;;;;;;16.92;35.00;95339.00;10461100;28;2034;-67
2023/12/24 06:22:07;;;;;;;;;;;;;;;16.92;34.79;95342.41;10469183;28;1973;-67
2023/12/24 06:27:07;;;;;;;;;;;;;;;16.90;34.85;95339.28;10477185;28;2057;-67
2023/12/24 06:32:07;;;;;;;;;;;;;;;16.90;34.87;95328.81;10481011;28;1877;-67
2023/12/24 06:37:08;;;;;;;;;;;;;;;16.89;34.97;95321.22;10476762;28;1915;-69
2023/12/24 06:42:08;;;;;;;;;;;;;;;16.90;35.03;95341.09;10480409;28;2129;-67
2023/12/24 06:47:08;;;;;;;;;;;;;;;16.87;35.03;95329.34;10481373;28;1889;-66
2023/12/24 06:52:09;;;;;;;;;;;;;;;16.87;35.09;95303.16;10483420;28;2046;-67
2023/12/24 06:57:09;;;;;;;;;;;;;;;16.87;35.04;95307.59;10479743;28;1999;-66
2023/12/24 07:02:09;;;;;;;;;;;;;;;16.86;35.14;95311.25;10456752;28;2078;-67
2023/12/24 07:07:09;;;;;;;;;;;;;;;16.84;35.20;95302.88;10482128;28;2711;-67
2023/12/24 07:12:10;;;;;;;;;;;;;;;16.86;35.06;95311.25;10478108;28;1916;-67
2023/12/24 07:17:10;;;;;;;;;;;;;;;16.83;35.19;95312.59;10478320;28;2050;-66
2023/12/24 07:22:10;;;;;;;;;;;;;;;16.83;34.97;95291.63;10471949;28;2006;-68
2023/12/24 07:27:11;;;;;;;;;;;;;;;16.84;35.05;95287.97;10477128;28;1872;-66
2023/12/24 07:32:11;;;;;;;;;;;;;;;16.83;35.05;95293.47;10478713;28;1938;-66
2023/12/24 07:37:13;;;;;;;;;;;;;;;16.82;35.06;95289.25;10478379;28;2119;-67
2023/12/24 07:42:14;;;;;;;;;;;;;;;16.81;35.13;95285.09;10474361;28;2792;-66
2023/12/24 07:47:14;;;;;;;;;;;;;;;16.80;35.18;95283.50;10482469;28;1889;-65
2023/12/24 07:52:14;;;;;;;;;;;;;;;16.79;35.20;95281.94;10487197;28;1924;-66
2023/12/24 07:57:15;;;;;;;;;;;;;;;16.79;35.07;95271.47;10489713;28;1813;-66
2023/12/24 08:02:15;;;;;;;;;;;;;;;16.78;35.11;95278.53;10484249;28;2014;-67
2023/12/24 08:07:15;;;;;;;;;;;;;;;16.77;35.19;95292.69;10483724;28;1979;-66
2023/12/24 08:12:15;;;;;;;;;;;;;;;16.76;35.25;95290.31;10478743;28;5146;-65
2023/12/24 08:17:15;;;;;;;;;;;;;;;16.76;35.15;95285.06;10474881;28;1901;-68
2023/12/24 08:22:16;;;;;;;;;;;;;;;16.77;35.18;95270.94;10480710;28;1914;-65
2023/12/24 08:27:16;;;;;;;;;;;;;;;16.75;35.26;95289.53;10470394;28;1992;-68
2023/12/24 08:32:16;;;;;;;;;;;;;;;16.75;35.26;95293.97;10489465;28;1847;-67
2023/12/24 08:37:17;;;;;;;;;;;;;;;16.75;35.30;95293.97;10462272;28;2005;-68
2023/12/24 08:42:17;;;;;;;;;;;;;;;16.74;35.17;95292.41;10484382;28;1971;-68
2023/12/24 08:47:17;;;;;;;;;;;;;;;16.72;35.44;95279.56;10492082;28;2077;-67
2023/12/24 08:52:18;;;;;;;;;;;;;;;16.73;35.38;95288.22;10469501;28;2038;-67
2023/12/24 08:57:18;;;;;;;;;;;;;;;16.72;35.36;95263.09;10487459;28;2099;-68
2023/12/24 09:02:18;;;;;;;;;;;;;;;16.72;35.40;95260.47;10487620;28;1970;-68
2023/12/24 09:07:19;;;;;;;;;;;;;;;16.71;35.49;95262.28;10449973;28;2138;-67
2023/12/24 09:12:19;;;;;;;;;;;;;;;16.71;35.37;95261.53;10478135;28;4950;-69
2023/12/24 09:17:19;;;;;;;;;;;;;;;16.71;35.32;95256.28;10464319;28;1854;-67
2023/12/24 09:22:20;;;;;;;;;;;;;;;16.71;35.45;95256.28;10473284;28;1987;-67
2023/12/24 09:27:22;;;;;;;;;;;;;;;16.69;35.42;95263.63;10471740;28;1971;-67
2023/12/24 09:32:23;;;;;;;;;;;;;;;16.70;35.59;95280.88;10461947;28;2293;-68
2023/12/24 09:37:23;;;;;;;;;;;;;;;16.69;35.44;95284.56;10477563;28;2061;-66
2023/12/24 09:42:24;;;;;;;;;;;;;;;16.68;35.39;95278.53;10491995;28;1971;-66
2023/12/24 09:47:25;;;;;;;;;;;;;;;16.68;35.47;95264.66;10459585;28;1864;-67
2023/12/24 09:52:26;;;;;;;;;;;;;;;16.68;35.37;95252.34;10486219;28;1971;-67
2023/12/24 09:57:26;;;;;;;;;;;;;;;16.66;35.47;95232.72;10491738;28;2040;-68
2023/12/24 10:02:27;;;;;;;;;;;;;;;16.66;35.54;95251.03;10483139;28;2074;-67
2023/12/24 10:07:35;;;;;;;;;;;;;;;16.65;35.46;95239.03;10479080;28;1935;-67
2023/12/24 10:12:36;;;;;;;;;;;;;;;16.64;35.59;95237.44;10481066;28;5926;-67
2023/12/24 10:17:36;;;;;;;;;;;;;;;16.64;35.58;95240.03;10487419;28;1891;-66
2023/12/24 10:22:36;;;;;;;;;;;;;;;16.63;35.61;95244.50;10485882;28;1951;-66
2023/12/24 10:27:36;;;;;;;;;;;;;;;16.63;35.59;95231.41;10488912;28;2381;-67
2023/12/24 10:32:37;;;;;;;;;;;;;;;16.63;35.57;95223.56;10471396;28;1914;-66
2023/12/24 10:37:37;;;;;;;;;;;;;;;16.62;35.65;95210.75;10486030;28;1983;-66
2023/12/24 10:42:37;;;;;;;;;;;;;;;16.62;35.61;95203.69;10488151;28;1910;-67
2023/12/24 10:47:41;;;;;;;;;;;;;;;16.62;35.55;95189.81;10475459;28;1992;-66
2023/12/24 10:52:41;;;;;;;;;;;;;;;16.62;35.54;95187.19;10484067;28;1902;-67
2023/12/24 10:57:41;;;;;;;;;;;;;;;16.59;35.74;95175.41;10480507;28;1913;-66
2023/12/24 11:02:45;;;;;;;;;;;;;;;16.61;35.71;95188.25;10485085;28;1914;-67
2023/12/24 11:07:46;;;;;;;;;;;;;;;16.60;35.66;95171.75;10480039;28;1943;-67
2023/12/24 11:12:46;;;;;;;;;;;;;;;16.61;35.55;95159.47;10482554;28;5039;-67
2023/12/24 11:17:47;;;;;;;;;;;;;;;16.59;35.67;95167.56;10494319;28;1936;-68
2023/12/24 11:23:06;;;;;;;;;;;;;;;16.59;35.66;95156.34;10487312;28;1906;-68
2023/12/24 11:28:13;;;;;;;;;;;;;;;16.59;35.73;95154.47;10487673;28;2087;-67
2023/12/24 11:33:23;;;;;;;;;;;;;;;16.58;35.79;95147.69;10488208;28;1890;-67
2023/12/24 11:38:35;;;;;;;;;;;;;;;16.58;35.75;95131.19;10473778;28;1840;-67
2023/12/24 11:43:35;;;;;;;;;;;;;;;16.57;35.80;95137.50;10489825;28;1919;-68
2023/12/24 11:48:36;;;;;;;;;;;;;;;16.58;35.74;95126.75;10473990;28;1936;-68
2023/12/24 11:53:36;;;;;;;;;;;;;;;16.56;35.91;95122.84;10480024;28;1918;-67
2023/12/24 11:58:37;;;;;;;;;;;;;;;16.58;35.71;95133.81;10477451;28;1876;-68
2023/12/24 12:03:37;;;;;;;;;;;;;;;16.56;35.72;95130.69;10470442;28;2350;-68
2023/12/24 12:08:37;;;;;;;;;;;;;;;16.55;35.84;95152.66;10469626;28;2054;-68
2023/12/24 12:13:38;;;;;;;;;;;;;;;16.55;35.87;95147.44;10467419;28;2036;-67
2023/12/24 12:18:38;;;;;;;;;;;;;;;16.54;35.95;95145.84;10479202;28;2038;-68
2023/12/24 12:23:38;;;;;;;;;;;;;;;16.55;35.92;95152.66;10483845;28;2367;-66
2023/12/24 12:28:39;;;;;;;;;;;;;;;16.53;35.91;95167.81;10469747;28;2383;-66
2023/12/24 12:33:39;;;;;;;;;;;;;;;16.52;35.90;95192.41;10468474;28;2417;-69
2023/12/24 12:38:40;;;;;;;;;;;;;;;16.53;35.97;95183.50;10479653;28;2164;-69
2023/12/24 12:43:40;;;;;;;;;;;;;;;16.52;35.98;95177.53;10475396;28;1959;-68
2023/12/24 12:48:41;;;;;;;;;;;;;;;16.52;36.08;95177.53;10480304;28;1863;-68
2023/12/24 12:53:41;;;;;;;;;;;;;;;16.51;36.01;95186.41;10468368;28;1836;-67
2023/12/24 12:58:50;;;;;;;;;;;;;;;16.51;35.98;95177.75;10480032;28;1943;-68
2023/12/24 13:03:59;;;;;;;;;;;;;;;16.49;36.05;95170.19;10473299;28;1969;-68
2023/12/24 13:09:04;;;;;;;;;;;;;;;16.50;36.02;95176.19;10463059;28;1951;-67
2023/12/24 13:14:08;;;;;;;;;;;;;;;16.51;36.09;95190.84;10477483;28;4995;-69
2023/12/24 13:19:18;;;;;;;;;;;;;;;16.48;36.13;95171.22;10479534;28;1867;-68
2023/12/24 13:24:18;;;;;;;;;;;;;;;16.50;36.11;95179.63;10459715;28;1982;-67
2023/12/24 13:29:21;;;;;;;;;;;;;;;16.50;36.19;95189.28;10475920;28;1996;-68
2023/12/24 13:34:21;;;;;;;;;;;;;;;16.49;36.24;95172.78;10467078;28;2051;-67
2023/12/24 13:39:22;;;;;;;;;;;;;;;16.47;36.28;95161.78;10474659;28;2410;-68
2023/12/24 13:44:23;;;;;;;;;;;;;;;16.49;36.24;95174.59;10483629;28;2004;-68
2023/12/24 13:49:27;;;;;;;;;;;;;;;16.49;36.14;95174.59;10478150;28;1919;-67
2023/12/24 13:54:27;;;;;;;;;;;;;;;16.49;36.14;95175.41;10459501;28;2100;-67
2023/12/24 13:59:27;;;;;;;;;;;;;;;16.48;36.31;95168.59;10482677;28;1875;-66
2023/12/24 14:04:28;;;;;;;;;;;;;;;16.49;36.20;95174.59;10482586;28;1985;-68
2023/12/24 14:09:28;;;;;;;;;;;;;;;16.48;36.23;95173.03;10482480;28;1883;-67
2023/12/24 14:14:28;;;;;;;;;;;;;;;16.48;36.29;95178.25;10478310;28;5912;-68
2023/12/24 14:19:29;;;;;;;;;;;;;;;16.48;36.25;95179.06;10485000;28;2012;-67
2023/12/24 14:24:29;;;;;;;;;;;;;;;16.47;36.34;95181.91;10480480;28;1963;-66
2023/12/24 14:29:29;;;;;;;;;;;;;;;16.47;36.32;95176.69;10465494;28;2000;-66
2023/12/24 14:34:30;;;;;;;;;;;;;;;16.45;36.22;95184.78;10454809;28;2387;-67
2023/12/24 14:39:30;;;;;;;;;;;;;;;16.49;36.21;95159.72;10469691;28;1944;-68
2023/12/24 14:44:30;;;;;;;;;;;;;;;16.45;36.37;95169.09;10464530;28;1981;-67
2023/12/24 14:49:31;;;;;;;;;;;;;;;16.46;36.32;95177.75;10475260;28;2335;-67
2023/12/24 14:54:31;;;;;;;;;;;;;;;16.45;36.40;95179.56;10494327;28;2006;-67
2023/12/24 14:59:31;;;;;;;;;;;;;;;16.44;36.37;95171.97;10488880;28;1887;-68
2023/12/24 15:04:31;;;;;;;;;;;;;;;16.44;36.37;95171.97;10486596;28;2013;-68
2023/12/24 15:09:32;;;;;;;;;;;;;;;16.44;36.30;95175.41;10484851;28;1950;-67
2023/12/24 15:14:32;;;;;;;;;;;;;;;16.43;36.38;95193.94;10483285;28;5015;-67
2023/12/24 15:19:32;;;;;;;;;;;;;;;16.42;36.43;95205.47;10479138;28;1916;-67
2023/12/24 15:24:32;;;;;;;;;;;;;;;16.43;36.32;95207.03;10495435;28;1936;-65
2023/12/24 15:29:33;;;;;;;;;;;;;;;16.41;36.42;95193.41;10473485;28;2274;-67
2023/12/24 15:34:34;;;;;;;;;;;;;;;16.42;36.37;95205.47;10482208;28;1998;-67
2023/12/24 15:39:34;;;;;;;;;;;;;;;16.41;36.37;95193.41;10490035;28;1955;-67
2023/12/24 15:44:35;;;;;;;;;;;;;;;16.41;36.46;95196.81;10484612;28;1962;-68
2023/12/24 15:49:35;;;;;;;;;;;;;;;16.41;36.46;95228.22;10489371;28;1980;-66
2023/12/24 15:54:35;;;;;;;;;;;;;;;16.40;36.51;95218.81;10484562;28;1992;-67
2023/12/24 15:59:36;;;;;;;;;;;;;;;16.39;36.58;95206.75;10481152;28;1840;-68
2023/12/24 16:04:36;;;;;;;;;;;;;;;16.41;36.51;95222.19;10487877;28;2030;-66
2023/12/24 16:09:36;;;;;;;;;;;;;;;16.38;36.59;95204.41;10486900;28;1886;-67
2023/12/24 16:14:36;;;;;;;;;;;;;;;16.38;36.65;95202.59;10470218;28;1883;-67
2023/12/24 16:19:37;;;;;;;;;;;;;;;16.40;36.57;95202.31;10482479;28;1986;-67
2023/12/24 16:24:39;;;;;;;;;;;;;;;16.39;36.61;95185.03;10461805;28;2116;-66
2023/12/24 16:29:39;;;;;;;;;;;;;;;16.38;36.67;95194.75;10484053;28;2260;-66
2023/12/24 16:34:40;;;;;;;;;;;;;;;16.38;36.64;95193.94;10469509;28;2011;-66
2023/12/24 16:39:40;;;;;;;;;;;;;;;16.38;36.56;95199.19;10477304;28;1864;-66
2023/12/24 16:44:40;;;;;;;;;;;;;;;16.37;36.67;95192.38;10473641;28;2171;-65
2023/12/24 16:49:41;;;;;;;;;;;;;;;16.36;36.69;95201.28;10475451;28;2123;-66
2023/12/24 16:54:41;;;;;;;;;;;;;;;16.37;36.62;95208.06;10472338;28;1904;-67
2023/12/24 16:59:41;;;;;;;;;;;;;;;16.37;36.68;95205.44;10476920;28;1995;-66
2023/12/24 17:04:42;;;;;;;;;;;;;;;16.36;36.73;95209.13;10463478;28;2005;-67
2023/12/24 17:09:47;;;;;;;;;;;;;;;16.38;36.65;95220.13;10476572;28;2533;-66
2023/12/24 17:14:49;;;;;;;;;;;;;;;16.37;36.60;95232.41;10474302;28;5928;-66
2023/12/24 17:19:49;;;;;;;;;;;;;;;16.36;36.80;95235.28;10472283;28;1964;-67
2023/12/24 17:24:49;;;;;;;;;;;;;;;16.35;36.85;95226.63;10479155;28;2067;-67
2023/12/24 17:29:49;;;;;;;;;;;;;;;16.34;36.76;95234.75;10473408;28;1871;-66
2023/12/24 17:34:50;;;;;;;;;;;;;;;16.33;36.86;95220.88;10454655;28;2029;-67
2023/12/24 17:39:50;;;;;;;;;;;;;;;16.34;36.94;95213.81;10477999;28;1890;-66
2023/12/24 17:44:50;;;;;;;;;;;;;;;16.34;36.86;95216.44;10475088;28;1916;-64
2023/12/24 17:49:50;;;;;;;;;;;;;;;16.32;36.86;95213.31;10481432;28;2274;-66
2023/12/24 17:54:51;;;;;;;;;;;;;;;16.32;36.87;95221.16;10479800;28;1965;-66
2023/12/24 17:59:51;;;;;;;;;;;;;;;16.32;36.88;95205.47;10477961;28;1967;-65
2023/12/24 18:04:51;;;;;;;;;;;;;;;16.33;36.87;95207.81;10482514;28;1988;-67
2023/12/24 18:09:52;;;;;;;;;;;;;;;16.32;36.93;95202.84;10474701;28;1966;-67
2023/12/24 18:14:52;;;;;;;;;;;;;;;16.30;36.86;95201.25;10478475;28;4994;-67
2023/12/24 18:19:52;;;;;;;;;;;;;;;16.30;36.99;95211.72;10478934;28;1919;-66
2023/12/24 18:24:53;;;;;;;;;;;;;;;16.29;37.02;95204.94;10473264;28;2096;-67
2023/12/24 18:29:53;;;;;;;;;;;;;;;16.30;37.02;95198.63;10481878;28;1867;-66
2023/12/24 18:34:53;;;;;;;;;;;;;;;16.30;36.91;95192.63;10473335;28;2046;-66
2023/12/24 18:39:54;;;;;;;;;;;;;;;16.29;37.04;95194.47;10481324;28;2242;-66
2023/12/24 18:44:54;;;;;;;;;;;;;;;16.29;36.99;95212.78;10462659;28;2029;-67
2023/12/24 18:49:54;;;;;;;;;;;;;;;16.30;36.97;95229.22;10462950;28;1919;-67
2023/12/24 18:54:55;;;;;;;;;;;;;;;16.30;37.05;95244.91;10479314;28;2062;-66
2023/12/24 18:59:56;;;;;;;;;;;;;;;16.28;37.12;95232.13;10478066;28;1911;-66
2023/12/24 19:04:56;;;;;;;;;;;;;;;16.28;37.05;95237.34;10461300;28;2012;-66
2023/12/24 19:09:57;;;;;;;;;;;;;;;16.27;37.02;95251.47;10456850;28;1989;-66
2023/12/24 19:14:57;;;;;;;;;;;;;;;16.27;37.09;95225.31;10477293;28;5317;-67
2023/12/24 19:19:57;;;;;;;;;;;;;;;16.27;37.10;95225.31;10484198;28;1923;-69
2023/12/24 19:24:58;;;;;;;;;;;;;;;16.27;37.27;95230.56;10472634;28;1994;-66
2023/12/24 19:29:58;;;;;;;;;;;;;;;16.26;37.14;95234.19;10486969;28;2144;-67
2023/12/24 19:34:58;;;;;;;;;;;;;;;16.27;37.13;95235.78;10487302;28;1915;-67
2023/12/24 19:39:58;;;;;;;;;;;;;;;16.26;37.20;95236.81;10490017;28;2380;-66
2023/12/24 19:44:59;;;;;;;;;;;;;;;16.26;37.26;95244.66;10494521;28;2294;-69
2023/12/24 19:49:59;;;;;;;;;;;;;;;16.26;37.13;95238.63;10483335;28;1874;-66
2023/12/24 19:54:59;;;;;;;;;;;;;;;16.25;37.14;95258.78;10487304;28;2043;-67
2023/12/24 19:59:59;;;;;;;;;;;;;;;16.25;37.28;95255.38;10491927;28;2058;-66
2023/12/24 20:05:00;;;;;;;;;;;;;;;16.24;37.27;95270.28;10475421;28;1918;-66
2023/12/24 20:10:00;;;;;;;;;;;;;;;16.24;37.18;95251.97;10481771;28;1930;-65
2023/12/24 20:15:00;;;;;;;;;;;;;;;16.25;37.24;95269.25;10478984;28;5058;-67
2023/12/24 20:20:00;;;;;;;;;;;;;;;16.24;37.34;95272.91;10484500;28;2076;-67
2023/12/24 20:25:01;;;;;;;;;;;;;;;16.23;37.35;95273.16;10489039;28;1980;-66
2023/12/24 20:30:02;;;;;;;;;;;;;;;16.24;37.28;95251.97;10465575;28;1946;-67
2023/12/24 20:35:02;;;;;;;;;;;;;;;16.22;37.22;95248.03;10474159;28;2566;-67
2023/12/24 20:40:04;;;;;;;;;;;;;;;16.21;37.42;95257.75;10479207;28;1938;-66
2023/12/24 20:45:05;;;;;;;;;;;;;;;16.22;37.25;95243.59;10480896;28;1964;-66
2023/12/24 20:50:06;;;;;;;;;;;;;;;16.22;37.42;95221.91;10477018;28;1919;-67
2023/12/24 20:55:07;;;;;;;;;;;;;;;16.20;37.35;95209.09;10476749;28;2086;-66
2023/12/24 21:00:08;;;;;;;;;;;;;;;16.21;37.44;95191.56;10481964;28;1860;-67
2023/12/24 21:05:10;;;;;;;;;;;;;;;16.21;37.46;95202.81;10467982;28;1971;-66
2023/12/24 21:10:11;;;;;;;;;;;;;;;16.20;37.36;95198.63;10450046;28;2043;-66
2023/12/24 21:15:11;;;;;;;;;;;;;;;16.21;37.49;95184.53;10470458;28;1886;-67
2023/12/24 21:20:11;;;;;;;;;;;;;;;16.20;37.47;95219.53;10474359;28;1946;-66
2023/12/24 21:25:11;;;;;;;;;;;;;;;16.20;37.45;95227.38;10474133;28;1870;-67
2023/12/24 21:30:12;;;;;;;;;;;;;;;16.20;37.53;95219.53;10468218;28;2342;-67
2023/12/24 21:35:12;;;;;;;;;;;;;;;16.19;37.61;95197.06;10473857;28;1987;-68
2023/12/24 21:40:12;;;;;;;;;;;;;;;16.20;37.51;95193.41;10475427;28;1902;-65
2023/12/24 21:45:12;;;;;;;;;;;;;;;16.20;37.53;95176.91;10478171;28;2025;-65
2023/12/24 21:50:13;;;;;;;;;;;;;;;16.19;37.58;95189.22;10475513;28;1953;-66
2023/12/24 21:55:13;;;;;;;;;;;;;;;16.19;37.62;95186.63;10470669;28;1978;-66
2023/12/24 22:00:13;;;;;;;;;;;;;;;16.19;37.54;95184.00;10477202;28;1995;-66
2023/12/24 22:05:14;;;;;;;;;;;;;;;16.19;37.63;95178.75;10476815;28;1908;-66
2023/12/24 22:10:14;;;;;;;;;;;;;;;16.18;37.63;95200.72;10471360;28;2274;-64
2023/12/24 22:15:14;;;;;;;;;;;;;;;16.18;37.67;95197.31;10475209;28;5051;-66
2023/12/24 22:20:15;;;;;;;;;;;;;;;16.17;37.67;95182.69;10474857;28;2004;-65
2023/12/24 22:25:15;;;;;;;;;;;;;;;16.14;37.52;95177.94;10479550;28;2441;-65
2023/12/24 22:30:17;;;;;;;;;;;;;;;16.16;37.68;95181.88;10469001;28;1967;-66
2023/12/24 22:35:17;;;;;;;;;;;;;;;16.16;37.60;95181.88;10454517;28;1934;-66
2023/12/24 22:40:17;;;;;;;;;;;;;;;16.16;37.68;95196.78;10480120;28;1931;-67
2023/12/24 22:45:18;;;;;;;;;;;;;;;16.16;37.68;95210.66;10458319;28;2092;-67
2023/12/24 22:50:19;;;;;;;;;;;;;;;16.15;37.75;95203.06;10474609;28;2076;-67
2023/12/24 22:55:19;;;;;;;;;;;;;;;16.14;37.78;95197.03;10464789;28;2039;-65
2023/12/24 23:00:20;;;;;;;;;;;;;;;16.15;37.77;95184.75;10478307;28;1931;-65
2023/12/24 23:05:20;;;;;;;;;;;;;;;16.14;37.80;95204.09;10481521;28;2105;-65
2023/12/24 23:10:20;;;;;;;;;;;;;;;16.14;37.73;95207.50;10486169;28;2471;-66
2023/12/24 23:15:20;;;;;;;;;;;;;;;16.13;37.77;95208.56;10490485;28;5082;-67
2023/12/24 23:20:21;;;;;;;;;;;;;;;16.14;37.77;95210.13;10471512;28;2114;-66
2023/12/24 23:25:21;;;;;;;;;;;;;;;16.13;37.79;95216.41;10483718;28;2030;-67
2023/12/24 23:30:21;;;;;;;;;;;;;;;16.13;37.79;95211.19;10472197;28;2102;-67
2023/12/24 23:35:22;;;;;;;;;;;;;;;16.12;37.81;95206.97;10468472;28;1918;-67
2023/12/24 23:40:22;;;;;;;;;;;;;;;16.11;37.83;95205.44;10480882;28;1939;-68
2023/12/24 23:45:22;;;;;;;;;;;;;;;16.13;37.80;95210.38;10482781;28;1898;-67
2023/12/24 23:50:23;;;;;;;;;;;;;;;16.11;37.75;95208.03;10462542;28;2007;-67
2023/12/24 23:55:23;;;;;;;;;;;;;;;16.11;37.82;95215.09;10475311;28;2003;-70
